AirNav   Everest Fuels
 
 1071 users online  

9K7 Ellsworth Municipal Airport
Ellsworth, Kansas, USA

GOING TO ELLSWORTH?


FAA INFORMATION EFFECTIVE 16 JUNE 2022

Location

FAA Identifier: 9K7
Lat/Long: 38-45-01.9000N 098-13-49.3000W
38-45.031667N 098-13.821667W
38.7505278,-98.2303611
(estimated)
Elevation: 1630.5 ft. / 497.0 m (surveyed)
Variation: 07E (1985)
From city: 1 mile N of ELLSWORTH, KS
Time zone: UTC -5 (UTC -6 during Standard Time)
Zip code: 67439

Airport Operations

Airport use: Open to the public
Activation date: 12/1946
Control tower: no
ARTCC: KANSAS CITY CENTER
FSS: WICHITA FLIGHT SERVICE STATION
NOTAMs facility: ICT (NOTAM-D service available)
Attendance: UNATNDD
Wind indicator: yes
Segmented circle: no
Lights: ACTVT MIRL RWY 17/35 - CTAF.
Beacon: white-green (lighted land airport)
Operates sunset to sunrise.

Airport Communications

CTAF/UNICOM: 122.7
WX AWOS-3P: 119.675 (785-472-5609)

Airport Services

Fuel available: 100LL
100LL:FOR FUEL AFT HRS CALL 785-472-4416. FUEL ALSO AVBL 24 HRS BY CREDIT CARD.
Parking: tiedowns
Airframe service: NONE
Powerplant service: NONE
Bottled oxygen: NONE
Bulk oxygen: NONE

Runway Information

Runway 17/35

Dimensions: 4327 x 50 ft. / 1319 x 15 m
Surface: asphalt, in good condition
Weight bearing capacity: 
PCN 5 /F/C/Y/U
Runway edge lights: medium intensity
RUNWAY 17  RUNWAY 35
Latitude: 38-45.462717N38-44.750052N
Longitude: 098-13.813210W098-13.825945W
Elevation: 1630.5 ft.1608.0 ft.
Traffic pattern: leftleft
Displaced threshold: no410 ft.
Markings: numbers only, in good conditionnumbers only, in good condition
Touchdown point: yes, no lightsyes, no lights
Obstructions: none40 ft. pole, lighted, 938 ft. from runway, 18:1 slope to clear

Runway 12/30

Dimensions: 2144 x 250 ft. / 653 x 76 m
Surface: turf, in good condition
RUNWAY 12  RUNWAY 30
Latitude: 38-44.999438N38-44.766558N
Longitude: 098-13.997148W098-13.658005W
Elevation: 1607.3 ft.1600.5 ft.
Traffic pattern: leftleft
Touchdown point: yes, no lightsyes, no lights

Airport Ownership and Management from official FAA records

Ownership: Publicly-owned
Owner: CITY OF ELLSWORTH
CITY HALL 1ST & K
ELLSWORTH, KS 67439
Phone 785-472-5566
Manager: SCOTT MOORE- CITY ADMIN
CITY HALL
ELLSWORTH, KS 67439
Phone 785-472-5566

Airport Operational Statistics

Aircraft based on the field: 15
Single engine airplanes: 15
    
Aircraft operations: avg 55/day *
70% local general aviation
30% transient general aviation
<1% military
* for 12-month period ending 12 September 2018

Additional Remarks

IN APCH AREA TO RWY 35 ARE FENCES; CLUSTER LIGHTS & TOWERS.
ARPT PUBLIC PHONE NUMBER 785-472-5608.
FOR CD CTC KANSAS CITY ARTCC AT 913-254-8508.

Instrument Procedures

There are no published instrument procedures at 9K7.

Some nearby airports with instrument procedures:

KLYO - Lyons-Rice County Municipal Airport (25 nm S)
KSLN - Salina Regional Airport (27 nm E)
KRSL - Russell Municipal Airport (28 nm W)
KMPR - Mc Pherson Airport (35 nm SE)
KGBD - Great Bend Municipal Airport (38 nm SW)
 
Loc | Ops | Rwys | IFR | FBO | Links
Com | Nav | Svcs | Stats | Notes
Area around 9K7 (Ellsworth Municipal Airport)
 
Road maps at: MapQuest Bing Google
 
Aerial photo
WARNING: Photo may not be current or correct
Aerial photo of 9K7 (Ellsworth Municipal Airport)
Photo taken 27-May-2010
looking north.

Do you have a better or more recent aerial photo of Ellsworth Municipal Airport that you would like to share? If so, please send us your photo.

 
Sectional chart

 
Airport distance calculator
Flying to Ellsworth Municipal Airport? Find the distance to fly.

From to 9K7

Sunrise and sunset
Times for 25-Jun-2022
 Local
(UTC-5)
 Zulu
(UTC)
Morning civil twilight05:3810:38
Sunrise06:1011:10
Sunset21:0102:01
Evening civil twilight21:3302:33

Current date and time
Zulu (UTC)  25-Jun-2022 19:36:11
Local (UTC-5)  25-Jun-2022 14:36:11
 
METAR
KLYO 
25nm S 
251915Z AUTO 34017KT 10SM -RA BKN026 BKN036 OVC060 27/21 A3004 RMK AO2 T02650206
KSLN 
27nm E 
251900Z 34018KT 10SM BKN027 OVC036 29/22 A3001 RMK AO2 PK WND 34026/1858 T02940217
KRSL 
28nm W 
251853Z AUTO 36017G25KT 10SM -RA BKN027 26/18 A3008 RMK AO2 PK WND 35026/1843 RAB50 SLP168 P0000 T02560183
KMPR 
35nm SE 
251915Z AUTO 36017G23KT 10SM SCT032 BKN060 BKN075 29/23 A2996 RMK AO2 T02890227
KGBD 
38nm SW 
251856Z AUTO 35018G23KT 10SM OVC020 24/18 A3009 RMK AO2 PK WND 34026/1842 RAE04 SLP170 P0000 T02390183
KHUT 
44nm SE 
251852Z 01014G23KT 10SM CLR 30/22 A2999 RMK AO2 SLP127 T03000217
KHYS 
49nm W 
251856Z AUTO 01018G23KT 10SM SCT040 26/16 A3011 RMK AO2 PK WND 33028/1816 SLP176 T02610161 $
TAF
KSLN 
27nm E 
251720Z 2518/2618 35012KT P6SM VCSH SCT150 FM252000 36015KT P6SM VCTS BKN050CB FM261200 01010KT P6SM BKN150
KRSL 
28nm W 
251720Z 2518/2618 36014G24KT P6SM VCSH BKN020 TEMPO 2518/2520 OVC017 FM252000 01017G25KT P6SM BKN120 FM260000 02015G23KT P6SM BKN200
NOTAMs
Click for the latest NOTAMs
NOTAMs are issued by the DoD/FAA and will open in a separate window not controlled by AirNav.

 

 
 

FBO, Fuel Providers, and Aircraft Ground Support

  
 Business Name 
 
 Contact 
 
 Services / Description 
 
Fuel Prices
 
Comments
  
Ellsworth Municipal Airport 785-472-5608
785-472-5566
[web site]
[email]
Airport management, Aviation fuel, Flying club, Courtesy transportation, Pilots lounge / snooze room, Computerized weather, Restrooms

More info about Ellsworth Municipal Airport
independent
100LL
SS $5.00 
 Updated 17-Jun-2022
 
   1 read write
SS=Self service
Update Fuel Prices
 

Would you like to see your business listed on this page?

 If your business provides an interesting product or service to pilots, flight crews, aircraft, or users of the Ellsworth Municipal Airport, you should consider listing it here.  To start the listing process, click on the button below
 
Add a business
 

Other Pages about Ellsworth Municipal Airport

ellsworthks.net/pview.aspx?id=21024
AWOS/ASOS display
 
Update a link
 
Copyright © AirNav, LLC. All rights reserved. Privacy Policy  Contact